Euro IV — IQNH — position and weather

sailwx.info

Track history (hours):
 
Tides and Currents Weather Stations Pressure Air Temp Water Temp Dewpoint Dewpoint Depression Visibility Wind Speed Wind Dir Waves Ship Positions

Euro IV

Last reported at 2016-Aug-25 17:34 UTC. Time now 2016-Aug-26 04:56 UTC.
Position N 44°05' E 009°51'.

Length 25 m; draft 1.3 m.

Type: Passenger vessel. MMSI: 247131500.

Date/timePositionNaut miles runAvg speedWind from/ knotsBaromVisibWave heightAir tempDewpointWater temp
2016-Aug-25 17:34N 44°05' E 009°51'10 5.1
2016-Aug-25 15:33N 44°08' E 009°37'5 4.8
2016-Aug-25 14:31N 44°06' E 009°44'1 1.5
2016-Aug-25 13:33N 44°06' E 009°42'3 3.1
2016-Aug-25 12:33N 44°09' E 009°39'4 3.9
2016-Aug-25 11:31N 44°06' E 009°44'6 6.1
2016-Aug-25 10:33N 44°03' E 009°51'3 3.0
2016-Aug-25 09:33N 44°06' E 009°49'0 0.0
2016-Aug-25 08:34N 44°06' E 009°49'0 0.0
2016-Aug-25 07:34N 44°06' E 009°49'1 0.6
2016-Aug-25 06:34N 44°06' E 009°50'3 0.2
2016-Aug-24 16:33N 44°03' E 009°51'4 3.9
2016-Aug-24 15:33N 44°06' E 009°50'4 4.0
2016-Aug-24 14:33N 44°02' E 009°51'2 1.6
2016-Aug-24 13:33N 44°04' E 009°51'1 1.2
2016-Aug-24 12:33N 44°03' E 009°52'4 3.7
2016-Aug-24 11:34N 44°06' E 009°50'0 0.0
2016-Aug-24 10:34N 44°06' E 009°50'0 0.0
2016-Aug-24 09:33N 44°06' E 009°50'3 2.9
2016-Aug-24 08:33N 44°04' E 009°51'1 1.2
2016-Aug-24 07:33N 44°02' E 009°51'4 4.0
2016-Aug-24 06:33N 44°06' E 009°50'2 0.1
2016-Aug-23 15:33N 44°05' E 009°51'2 1.9
2016-Aug-23 14:33N 44°03' E 009°50'2 1.9
2016-Aug-23 13:33N 44°01' E 009°51'8 7.5
2016-Aug-23 12:33N 44°06' E 009°43'4 3.8
2016-Aug-23 11:33N 44°09' E 009°39'5 4.9
2016-Aug-23 10:34N 44°05' E 009°44'5 5.0
2016-Aug-23 09:34N 44°03' E 009°50'5 5.2
2016-Aug-23 08:34N 44°06' E 009°44'3 3.4
2016-Aug-23 07:33N 44°08' E 009°40'9 8.6
2016-Aug-23 06:34N 44°03' E 009°50'1 0.1
2016-Aug-22 16:33N 44°03' E 009°51'4 3.6
2016-Aug-22 15:33N 44°06' E 009°50'4 4.0
2016-Aug-22 14:33N 44°02' E 009°51'1 1.2
2016-Aug-22 13:34N 44°03' E 009°51'1 1.2
2016-Aug-22 12:33N 44°02' E 009°51'4 4.0
2016-Aug-22 11:34N 44°06' E 009°50'0 0.0
2016-Aug-22 10:34N 44°06' E 009°50'0 0.1
2016-Aug-22 09:33N 44°06' E 009°50'3 2.7
2016-Aug-22 08:33N 44°04' E 009°51'1 1.4
2016-Aug-22 07:33N 44°02' E 009°51'0 0.0
2016-Aug-20 16:34N 44°03' E 009°51'4 3.8
2016-Aug-20 15:34N 44°06' E 009°50'4 3.9
2016-Aug-20 14:33N 44°02' E 009°51'1 1.2
2016-Aug-20 13:34N 44°03' E 009°52'1 0.6
2016-Aug-20 12:33N 44°03' E 009°52'4 3.7
2016-Aug-20 11:33N 44°06' E 009°50'0 0.0
2016-Aug-20 10:33N 44°06' E 009°50'0 0.0
2016-Aug-20 09:33N 44°06' E 009°50'3 2.9
2016-Aug-20 08:34N 44°04' E 009°51'1 1.3
2016-Aug-20 07:33N 44°02' E 009°51'4 3.9
2016-Aug-20 06:33N 44°06' E 009°50'2 0.1
2016-Aug-19 14:33N 44°04' E 009°51'1 1.4
2016-Aug-19 13:33N 44°03' E 009°50'10 9.4
2016-Aug-19 12:32N 44°09' E 009°39'2 0.9
2016-Aug-19 10:07N 44°09' E 009°36'5 8.9
2016-Aug-19 09:34N 44°06' E 009°42'9 9.0
2016-Aug-19 08:33N 44°04' E 009°55'4 4.0
2016-Aug-19 07:33N 44°06' E 009°50'0 0.0
2016-Aug-19 06:33N 44°06' E 009°50'4 0.3
2016-Aug-18 16:34N 44°03' E 009°51'4 3.6
2016-Aug-18 15:33N 44°06' E 009°50'4 3.9
2016-Aug-18 14:33N 44°02' E 009°51'2 1.7
2016-Aug-18 13:34N 44°04' E 009°51'2 1.6
2016-Aug-18 12:33N 44°02' E 009°51'4 3.9
2016-Aug-18 11:33N 44°06' E 009°50'0 0.0
2016-Aug-18 10:33N 44°06' E 009°50'0 0.0
2016-Aug-18 09:34N 44°06' E 009°50'3 2.5
2016-Aug-18 08:34N 44°04' E 009°51'2 1.6
2016-Aug-18 07:33N 44°02' E 009°51'4 4.0
2016-Aug-18 06:34N 44°06' E 009°50'0 0.0
2016-Aug-17 22:33N 44°06' E 009°50'3 3.1
2016-Aug-17 21:33N 44°03' E 009°50'0 0.1
2016-Aug-17 20:33N 44°03' E 009°50'0 0.0
2016-Aug-17 19:34N 44°03' E 009°50'0 0.4
2016-Aug-17 18:34N 44°03' E 009°51'0 0.4
2016-Aug-17 17:33N 44°03' E 009°50'3 3.1
2016-Aug-17 16:33N 44°06' E 009°50'1 0.7
2016-Aug-17 15:33N 44°06' E 009°50'3 2.6
2016-Aug-17 14:33N 44°03' E 009°50'3 3.1
2016-Aug-17 13:33N 44°06' E 009°50'0 0.5
2016-Aug-17 12:33N 44°06' E 009°50'8 3.4
2016-Aug-17 10:11N 44°09' E 009°39'0 0.0
2016-Aug-17 09:34N 44°09' E 009°39'1 0.9
2016-Aug-17 08:33N 44°08' E 009°40'6 6.5
2016-Aug-17 07:33N 44°04' E 009°47'3 3.4
2016-Aug-17 06:33N 44°06' E 009°50'4 0.3
2016-Aug-16 16:34N 44°03' E 009°51'4 3.5
2016-Aug-16 15:33N 44°06' E 009°50'4 3.9
2016-Aug-16 14:33N 44°02' E 009°51'2 1.6
2016-Aug-16 13:33N 44°04' E 009°51'1 1.4
2016-Aug-16 12:34N 44°02' E 009°51'4 3.9
2016-Aug-16 11:33N 44°06' E 009°50'0 0.0
2016-Aug-16 10:33N 44°06' E 009°50'0 0.0
2016-Aug-16 09:33N 44°06' E 009°50'3 2.6
2016-Aug-16 08:34N 44°04' E 009°51'2 1.5
2016-Aug-16 07:33N 44°02' E 009°51'4 4.0
2016-Aug-16 06:33N 44°06' E 009°50'  
Track history (hours):
 
Tides and Currents Weather Stations Pressure Air Temp Water Temp Dewpoint Dewpoint Depression Visibility Wind Speed Wind Dir Waves Ship Positions

Euro IV

Last reported at 2016-Aug-25 17:34 UTC. Time now 2016-Aug-26 04:56 UTC.
Position N 44°05' E 009°51'.

Length 25 m; draft 1.3 m.

Type: Passenger vessel. MMSI: 247131500.

Date/timePositionNaut miles runAvg speedWind from/ knotsBaromVisibWave heightAir tempDewpointWater temp
2016-Aug-25 17:34N 44°05' E 009°51'10 5.1
2016-Aug-25 15:33N 44°08' E 009°37'5 4.8
2016-Aug-25 14:31N 44°06' E 009°44'1 1.5
2016-Aug-25 13:33N 44°06' E 009°42'3 3.1
2016-Aug-25 12:33N 44°09' E 009°39'4 3.9
2016-Aug-25 11:31N 44°06' E 009°44'6 6.1
2016-Aug-25 10:33N 44°03' E 009°51'3 3.0
2016-Aug-25 09:33N 44°06' E 009°49'0 0.0
2016-Aug-25 08:34N 44°06' E 009°49'0 0.0
2016-Aug-25 07:34N 44°06' E 009°49'1 0.6
2016-Aug-25 06:34N 44°06' E 009°50'3 0.2
2016-Aug-24 16:33N 44°03' E 009°51'4 3.9
2016-Aug-24 15:33N 44°06' E 009°50'4 4.0
2016-Aug-24 14:33N 44°02' E 009°51'2 1.6
2016-Aug-24 13:33N 44°04' E 009°51'1 1.2
2016-Aug-24 12:33N 44°03' E 009°52'4 3.7
2016-Aug-24 11:34N 44°06' E 009°50'0 0.0
2016-Aug-24 10:34N 44°06' E 009°50'0 0.0
2016-Aug-24 09:33N 44°06' E 009°50'3 2.9
2016-Aug-24 08:33N 44°04' E 009°51'1 1.2
2016-Aug-24 07:33N 44°02' E 009°51'4 4.0
2016-Aug-24 06:33N 44°06' E 009°50'2 0.1
2016-Aug-23 15:33N 44°05' E 009°51'2 1.9
2016-Aug-23 14:33N 44°03' E 009°50'2 1.9
2016-Aug-23 13:33N 44°01' E 009°51'8 7.5
2016-Aug-23 12:33N 44°06' E 009°43'4 3.8
2016-Aug-23 11:33N 44°09' E 009°39'5 4.9
2016-Aug-23 10:34N 44°05' E 009°44'5 5.0
2016-Aug-23 09:34N 44°03' E 009°50'5 5.2
2016-Aug-23 08:34N 44°06' E 009°44'3 3.4
2016-Aug-23 07:33N 44°08' E 009°40'9 8.6
2016-Aug-23 06:34N 44°03' E 009°50'1 0.1
2016-Aug-22 16:33N 44°03' E 009°51'4 3.6
2016-Aug-22 15:33N 44°06' E 009°50'4 4.0
2016-Aug-22 14:33N 44°02' E 009°51'1 1.2
2016-Aug-22 13:34N 44°03' E 009°51'1 1.2
2016-Aug-22 12:33N 44°02' E 009°51'4 4.0
2016-Aug-22 11:34N 44°06' E 009°50'0 0.0
2016-Aug-22 10:34N 44°06' E 009°50'0 0.1
2016-Aug-22 09:33N 44°06' E 009°50'3 2.7
2016-Aug-22 08:33N 44°04' E 009°51'1 1.4
2016-Aug-22 07:33N 44°02' E 009°51'0 0.0
2016-Aug-20 16:34N 44°03' E 009°51'4 3.8
2016-Aug-20 15:34N 44°06' E 009°50'4 3.9
2016-Aug-20 14:33N 44°02' E 009°51'1 1.2
2016-Aug-20 13:34N 44°03' E 009°52'1 0.6
2016-Aug-20 12:33N 44°03' E 009°52'4 3.7
2016-Aug-20 11:33N 44°06' E 009°50'0 0.0
2016-Aug-20 10:33N 44°06' E 009°50'0 0.0
2016-Aug-20 09:33N 44°06' E 009°50'3 2.9
2016-Aug-20 08:34N 44°04' E 009°51'1 1.3
2016-Aug-20 07:33N 44°02' E 009°51'4 3.9
2016-Aug-20 06:33N 44°06' E 009°50'2 0.1
2016-Aug-19 14:33N 44°04' E 009°51'1 1.4
2016-Aug-19 13:33N 44°03' E 009°50'10 9.4
2016-Aug-19 12:32N 44°09' E 009°39'2 0.9
2016-Aug-19 10:07N 44°09' E 009°36'5 8.9
2016-Aug-19 09:34N 44°06' E 009°42'9 9.0
2016-Aug-19 08:33N 44°04' E 009°55'4 4.0
2016-Aug-19 07:33N 44°06' E 009°50'0 0.0
2016-Aug-19 06:33N 44°06' E 009°50'4 0.3
2016-Aug-18 16:34N 44°03' E 009°51'4 3.6
2016-Aug-18 15:33N 44°06' E 009°50'4 3.9
2016-Aug-18 14:33N 44°02' E 009°51'2 1.7
2016-Aug-18 13:34N 44°04' E 009°51'2 1.6
2016-Aug-18 12:33N 44°02' E 009°51'4 3.9
2016-Aug-18 11:33N 44°06' E 009°50'0 0.0
2016-Aug-18 10:33N 44°06' E 009°50'0 0.0
2016-Aug-18 09:34N 44°06' E 009°50'3 2.5
2016-Aug-18 08:34N 44°04' E 009°51'2 1.6
2016-Aug-18 07:33N 44°02' E 009°51'4 4.0
2016-Aug-18 06:34N 44°06' E 009°50'0 0.0
2016-Aug-17 22:33N 44°06' E 009°50'3 3.1
2016-Aug-17 21:33N 44°03' E 009°50'0 0.1
2016-Aug-17 20:33N 44°03' E 009°50'0 0.0
2016-Aug-17 19:34N 44°03' E 009°50'0 0.4
2016-Aug-17 18:34N 44°03' E 009°51'0 0.4
2016-Aug-17 17:33N 44°03' E 009°50'3 3.1
2016-Aug-17 16:33N 44°06' E 009°50'1 0.7
2016-Aug-17 15:33N 44°06' E 009°50'3 2.6
2016-Aug-17 14:33N 44°03' E 009°50'3 3.1
2016-Aug-17 13:33N 44°06' E 009°50'0 0.5
2016-Aug-17 12:33N 44°06' E 009°50'8 3.4
2016-Aug-17 10:11N 44°09' E 009°39'0 0.0
2016-Aug-17 09:34N 44°09' E 009°39'1 0.9
2016-Aug-17 08:33N 44°08' E 009°40'6 6.5
2016-Aug-17 07:33N 44°04' E 009°47'3 3.4
2016-Aug-17 06:33N 44°06' E 009°50'4 0.3
2016-Aug-16 16:34N 44°03' E 009°51'4 3.5
2016-Aug-16 15:33N 44°06' E 009°50'4 3.9
2016-Aug-16 14:33N 44°02' E 009°51'2 1.6
2016-Aug-16 13:33N 44°04' E 009°51'1 1.4
2016-Aug-16 12:34N 44°02' E 009°51'4 3.9
2016-Aug-16 11:33N 44°06' E 009°50'0 0.0
2016-Aug-16 10:33N 44°06' E 009°50'0 0.0
2016-Aug-16 09:33N 44°06' E 009°50'3 2.6
2016-Aug-16 08:34N 44°04' E 009°51'2 1.5
2016-Aug-16 07:33N 44°02' E 009°51'4 4.0
2016-Aug-16 06:33N 44°06' E 009°50'  

Dump ship's entire track history